sensor_id;sensor_type;location;lat;lon;timestamp;P1;durP1;ratioP1;P2;durP2;ratioP2
36547;SDS011;22551;52.206;4.856;2022-12-07T00:08:53;3.50;;;1.52;;
36547;SDS011;22551;52.206;4.856;2022-12-07T00:13:57;6.43;;;1.92;;
36547;SDS011;22551;52.206;4.856;2022-12-07T00:19:02;3.88;;;1.73;;
36547;SDS011;22551;52.206;4.856;2022-12-07T00:24:06;5.90;;;2.20;;
36547;SDS011;22551;52.206;4.856;2022-12-07T00:29:12;5.22;;;2.15;;
36547;SDS011;22551;52.206;4.856;2022-12-07T00:34:18;4.82;;;2.08;;
36547;SDS011;22551;52.206;4.856;2022-12-07T00:39:22;3.90;;;1.77;;
36547;SDS011;22551;52.206;4.856;2022-12-07T00:44:26;5.22;;;1.80;;
36547;SDS011;22551;52.206;4.856;2022-12-07T00:49:29;4.30;;;1.52;;
36547;SDS011;22551;52.206;4.856;2022-12-07T00:54:32;2.88;;;1.70;;
36547;SDS011;22551;52.206;4.856;2022-12-07T00:59:35;2.75;;;1.30;;
36547;SDS011;22551;52.206;4.856;2022-12-07T01:04:38;5.35;;;1.60;;
36547;SDS011;22551;52.206;4.856;2022-12-07T01:09:40;5.20;;;1.00;;
36547;SDS011;22551;52.206;4.856;2022-12-07T01:14:44;3.53;;;1.23;;
36547;SDS011;22551;52.206;4.856;2022-12-07T01:19:46;2.75;;;1.17;;
36547;SDS011;22551;52.206;4.856;2022-12-07T01:24:48;4.20;;;0.90;;
36547;SDS011;22551;52.206;4.856;2022-12-07T01:29:52;7.38;;;1.42;;
36547;SDS011;22551;52.206;4.856;2022-12-07T01:34:54;5.93;;;0.75;;
36547;SDS011;22551;52.206;4.856;2022-12-07T01:39:56;7.38;;;0.65;;
36547;SDS011;22551;52.206;4.856;2022-12-07T01:50:45;5.75;;;0.47;;
36547;SDS011;22551;52.206;4.856;2022-12-07T01:55:50;4.10;;;0.32;;
36547;SDS011;22551;52.206;4.856;2022-12-07T02:00:56;1.30;;;0.50;;
36547;SDS011;22551;52.206;4.856;2022-12-07T02:05:58;8.15;;;0.55;;
36547;SDS011;22551;52.206;4.856;2022-12-07T02:11:01;1.55;;;0.20;;
36547;SDS011;22551;52.206;4.856;2022-12-07T02:16:10;2.35;;;0.35;;
36547;SDS011;22551;52.206;4.856;2022-12-07T02:21:27;4.05;;;0.43;;
36547;SDS011;22551;52.206;4.856;2022-12-07T02:26:55;2.67;;;0.30;;
36547;SDS011;22551;52.206;4.856;2022-12-07T02:32:27;4.00;;;0.25;;
36547;SDS011;22551;52.206;4.856;2022-12-07T02:37:41;2.20;;;0.22;;
36547;SDS011;22551;52.206;4.856;2022-12-07T02:42:51;4.30;;;0.47;;
36547;SDS011;22551;52.206;4.856;2022-12-07T02:48:02;3.28;;;0.32;;
36547;SDS011;22551;52.206;4.856;2022-12-07T02:58:36;4.88;;;0.38;;
36547;SDS011;22551;52.206;4.856;2022-12-07T03:03:54;0.77;;;0.40;;
36547;SDS011;22551;52.206;4.856;2022-12-07T03:09:06;4.25;;;0.57;;
36547;SDS011;22551;52.206;4.856;2022-12-07T03:14:17;2.65;;;0.50;;
36547;SDS011;22551;52.206;4.856;2022-12-07T03:19:26;1.13;;;0.30;;
36547;SDS011;22551;52.206;4.856;2022-12-07T03:24:30;2.28;;;0.40;;
36547;SDS011;22551;52.206;4.856;2022-12-07T03:29:40;2.15;;;0.50;;
36547;SDS011;22551;52.206;4.856;2022-12-07T03:34:49;3.10;;;0.65;;
36547;SDS011;22551;52.206;4.856;2022-12-07T03:39:59;2.20;;;0.45;;
36547;SDS011;22551;52.206;4.856;2022-12-07T03:45:09;2.90;;;0.50;;
36547;SDS011;22551;52.206;4.856;2022-12-07T03:50:15;0.45;;;0.20;;
36547;SDS011;22551;52.206;4.856;2022-12-07T03:55:28;3.67;;;0.63;;
36547;SDS011;22551;52.206;4.856;2022-12-07T04:00:33;1.50;;;0.55;;
36547;SDS011;22551;52.206;4.856;2022-12-07T04:05:37;3.30;;;0.63;;
36547;SDS011;22551;52.206;4.856;2022-12-07T04:10:40;2.85;;;0.73;;
36547;SDS011;22551;52.206;4.856;2022-12-07T04:15:42;3.33;;;0.55;;
36547;SDS011;22551;52.206;4.856;2022-12-07T04:20:46;6.68;;;0.70;;
36547;SDS011;22551;52.206;4.856;2022-12-07T04:25:48;2.65;;;0.40;;
36547;SDS011;22551;52.206;4.856;2022-12-07T04:30:51;1.83;;;0.35;;
36547;SDS011;22551;52.206;4.856;2022-12-07T04:35:54;3.60;;;0.50;;
36547;SDS011;22551;52.206;4.856;2022-12-07T04:40:56;4.70;;;0.50;;
36547;SDS011;22551;52.206;4.856;2022-12-07T04:45:58;1.48;;;0.50;;
36547;SDS011;22551;52.206;4.856;2022-12-07T04:51:04;2.80;;;0.38;;
36547;SDS011;22551;52.206;4.856;2022-12-07T04:56:06;1.30;;;0.73;;
36547;SDS011;22551;52.206;4.856;2022-12-07T05:01:09;0.80;;;0.47;;
36547;SDS011;22551;52.206;4.856;2022-12-07T05:06:12;3.63;;;0.55;;
36547;SDS011;22551;52.206;4.856;2022-12-07T05:11:15;6.22;;;1.15;;
36547;SDS011;22551;52.206;4.856;2022-12-07T05:16:32;2.50;;;0.70;;
36547;SDS011;22551;52.206;4.856;2022-12-07T05:21:36;1.55;;;0.40;;
36547;SDS011;22551;52.206;4.856;2022-12-07T05:26:38;1.15;;;0.25;;
36547;SDS011;22551;52.206;4.856;2022-12-07T05:31:41;2.80;;;0.70;;
36547;SDS011;22551;52.206;4.856;2022-12-07T05:36:44;2.95;;;1.20;;
36547;SDS011;22551;52.206;4.856;2022-12-07T05:41:47;4.03;;;0.85;;
36547;SDS011;22551;52.206;4.856;2022-12-07T05:47:06;5.57;;;1.83;;
36547;SDS011;22551;52.206;4.856;2022-12-07T05:52:10;3.85;;;0.60;;
36547;SDS011;22551;52.206;4.856;2022-12-07T05:57:12;2.80;;;0.70;;
36547;SDS011;22551;52.206;4.856;2022-12-07T06:02:15;2.42;;;0.43;;
36547;SDS011;22551;52.206;4.856;2022-12-07T06:07:20;3.05;;;0.73;;
36547;SDS011;22551;52.206;4.856;2022-12-07T06:12:22;2.05;;;0.35;;
36547;SDS011;22551;52.206;4.856;2022-12-07T06:17:39;3.50;;;0.90;;
36547;SDS011;22551;52.206;4.856;2022-12-07T06:22:43;3.55;;;0.93;;
36547;SDS011;22551;52.206;4.856;2022-12-07T06:27:45;2.53;;;0.77;;
36547;SDS011;22551;52.206;4.856;2022-12-07T06:32:47;8.05;;;1.15;;
36547;SDS011;22551;52.206;4.856;2022-12-07T06:37:51;2.45;;;1.40;;
36547;SDS011;22551;52.206;4.856;2022-12-07T06:42:53;3.95;;;1.05;;
36547;SDS011;22551;52.206;4.856;2022-12-07T06:47:55;4.65;;;1.33;;
36547;SDS011;22551;52.206;4.856;2022-12-07T06:52:59;6.10;;;1.58;;
36547;SDS011;22551;52.206;4.856;2022-12-07T06:58:01;5.45;;;1.85;;
36547;SDS011;22551;52.206;4.856;2022-12-07T07:03:03;6.10;;;1.60;;
36547;SDS011;22551;52.206;4.856;2022-12-07T07:08:07;9.55;;;2.30;;
36547;SDS011;22551;52.206;4.856;2022-12-07T07:13:09;5.63;;;1.77;;
36547;SDS011;22551;52.206;4.856;2022-12-07T07:18:11;3.38;;;1.38;;
36547;SDS011;22551;52.206;4.856;2022-12-07T07:23:15;4.28;;;2.05;;
36547;SDS011;22551;52.206;4.856;2022-12-07T07:28:17;2.60;;;1.52;;
36547;SDS011;22551;52.206;4.856;2022-12-07T07:33:19;4.50;;;1.80;;
36547;SDS011;22551;52.206;4.856;2022-12-07T07:38:23;8.13;;;1.50;;
36547;SDS011;22551;52.206;4.856;2022-12-07T07:43:26;5.70;;;2.08;;
36547;SDS011;22551;52.206;4.856;2022-12-07T07:48:28;5.65;;;1.42;;
36547;SDS011;22551;52.206;4.856;2022-12-07T07:53:32;2.50;;;1.48;;
36547;SDS011;22551;52.206;4.856;2022-12-07T07:58:34;3.13;;;1.30;;
36547;SDS011;22551;52.206;4.856;2022-12-07T08:03:38;5.88;;;1.63;;
36547;SDS011;22551;52.206;4.856;2022-12-07T08:08:42;4.15;;;1.60;;
36547;SDS011;22551;52.206;4.856;2022-12-07T08:13:44;5.07;;;1.60;;
36547;SDS011;22551;52.206;4.856;2022-12-07T08:18:47;4.07;;;1.30;;
36547;SDS011;22551;52.206;4.856;2022-12-07T08:23:51;10.18;;;1.40;;
36547;SDS011;22551;52.206;4.856;2022-12-07T08:28:54;4.70;;;1.10;;
36547;SDS011;22551;52.206;4.856;2022-12-07T08:33:56;3.35;;;1.25;;
36547;SDS011;22551;52.206;4.856;2022-12-07T08:38:59;4.32;;;1.02;;
36547;SDS011;22551;52.206;4.856;2022-12-07T08:44:02;4.47;;;1.67;;
36547;SDS011;22551;52.206;4.856;2022-12-07T08:49:05;5.55;;;1.25;;
36547;SDS011;22551;52.206;4.856;2022-12-07T08:54:16;4.50;;;1.55;;
36547;SDS011;22551;52.206;4.856;2022-12-07T09:04:22;8.05;;;1.70;;
36547;SDS011;22551;52.206;4.856;2022-12-07T09:09:25;3.60;;;1.45;;
36547;SDS011;22551;52.206;4.856;2022-12-07T09:14:28;3.80;;;1.45;;
36547;SDS011;22551;52.206;4.856;2022-12-07T09:19:30;8.05;;;1.70;;
36547;SDS011;22551;52.206;4.856;2022-12-07T09:24:37;2.55;;;1.33;;
36547;SDS011;22551;52.206;4.856;2022-12-07T09:29:39;5.28;;;2.20;;
36547;SDS011;22551;52.206;4.856;2022-12-07T09:34:41;9.35;;;1.70;;
36547;SDS011;22551;52.206;4.856;2022-12-07T09:39:44;4.82;;;1.70;;
36547;SDS011;22551;52.206;4.856;2022-12-07T09:44:47;3.75;;;1.38;;
36547;SDS011;22551;52.206;4.856;2022-12-07T09:49:49;9.77;;;1.90;;
36547;SDS011;22551;52.206;4.856;2022-12-07T09:54:52;5.78;;;1.98;;
36547;SDS011;22551;52.206;4.856;2022-12-07T09:59:55;2.35;;;1.60;;
36547;SDS011;22551;52.206;4.856;2022-12-07T10:05:01;10.48;;;1.58;;
36547;SDS011;22551;52.206;4.856;2022-12-07T10:10:14;12.55;;;2.28;;
36547;SDS011;22551;52.206;4.856;2022-12-07T10:15:19;6.15;;;1.20;;
36547;SDS011;22551;52.206;4.856;2022-12-07T10:20:23;4.28;;;1.50;;
36547;SDS011;22551;52.206;4.856;2022-12-07T10:25:29;3.17;;;1.15;;
36547;SDS011;22551;52.206;4.856;2022-12-07T10:30:34;7.47;;;1.33;;
36547;SDS011;22551;52.206;4.856;2022-12-07T10:35:56;5.93;;;1.00;;
36547;SDS011;22551;52.206;4.856;2022-12-07T10:41:05;4.63;;;0.90;;
36547;SDS011;22551;52.206;4.856;2022-12-07T10:52:06;4.32;;;1.85;;
36547;SDS011;22551;52.206;4.856;2022-12-07T10:57:30;6.90;;;1.20;;
36547;SDS011;22551;52.206;4.856;2022-12-07T11:02:49;5.60;;;0.98;;
36547;SDS011;22551;52.206;4.856;2022-12-07T11:08:14;8.52;;;1.17;;
36547;SDS011;22551;52.206;4.856;2022-12-07T11:13:29;4.90;;;1.55;;
36547;SDS011;22551;52.206;4.856;2022-12-07T11:18:44;4.05;;;0.80;;
36547;SDS011;22551;52.206;4.856;2022-12-07T11:24:01;2.05;;;1.23;;
36547;SDS011;22551;52.206;4.856;2022-12-07T11:29:17;2.60;;;0.80;;
36547;SDS011;22551;52.206;4.856;2022-12-07T11:34:32;1.73;;;0.60;;
36547;SDS011;22551;52.206;4.856;2022-12-07T11:39:41;6.00;;;1.08;;
36547;SDS011;22551;52.206;4.856;2022-12-07T11:44:52;5.10;;;0.82;;
36547;SDS011;22551;52.206;4.856;2022-12-07T11:50:02;5.82;;;0.93;;
36547;SDS011;22551;52.206;4.856;2022-12-07T11:55:21;4.22;;;0.60;;
36547;SDS011;22551;52.206;4.856;2022-12-07T12:00:33;8.73;;;0.90;;
36547;SDS011;22551;52.206;4.856;2022-12-07T12:05:36;7.60;;;0.70;;
36547;SDS011;22551;52.206;4.856;2022-12-07T12:10:44;4.67;;;0.87;;
36547;SDS011;22551;52.206;4.856;2022-12-07T12:16:07;7.25;;;0.85;;
36547;SDS011;22551;52.206;4.856;2022-12-07T12:21:26;1.83;;;0.52;;
36547;SDS011;22551;52.206;4.856;2022-12-07T12:26:30;4.43;;;1.55;;
36547;SDS011;22551;52.206;4.856;2022-12-07T12:31:37;4.13;;;0.97;;
36547;SDS011;22551;52.206;4.856;2022-12-07T12:36:45;2.95;;;1.23;;
36547;SDS011;22551;52.206;4.856;2022-12-07T12:41:58;6.82;;;1.38;;
36547;SDS011;22551;52.206;4.856;2022-12-07T12:52:48;5.00;;;1.52;;
36547;SDS011;22551;52.206;4.856;2022-12-07T13:03:32;1.75;;;0.32;;
36547;SDS011;22551;52.206;4.856;2022-12-07T13:08:35;4.75;;;0.25;;
36547;SDS011;22551;52.206;4.856;2022-12-07T13:13:42;2.25;;;0.20;;
36547;SDS011;22551;52.206;4.856;2022-12-07T13:18:45;0.43;;;0.10;;
36547;SDS011;22551;52.206;4.856;2022-12-07T13:23:52;3.03;;;0.65;;
36547;SDS011;22551;52.206;4.856;2022-12-07T13:29:04;1.48;;;0.40;;
36547;SDS011;22551;52.206;4.856;2022-12-07T13:34:30;3.03;;;0.40;;
36547;SDS011;22551;52.206;4.856;2022-12-07T13:39:34;4.85;;;0.70;;
36547;SDS011;22551;52.206;4.856;2022-12-07T13:44:46;2.33;;;0.50;;
36547;SDS011;22551;52.206;4.856;2022-12-07T13:49:50;1.58;;;0.40;;
36547;SDS011;22551;52.206;4.856;2022-12-07T13:54:56;2.60;;;0.40;;
36547;SDS011;22551;52.206;4.856;2022-12-07T14:00:00;4.60;;;1.27;;
36547;SDS011;22551;52.206;4.856;2022-12-07T14:05:08;4.05;;;0.55;;
36547;SDS011;22551;52.206;4.856;2022-12-07T14:10:25;3.08;;;0.68;;
36547;SDS011;22551;52.206;4.856;2022-12-07T14:15:29;1.02;;;0.52;;
36547;SDS011;22551;52.206;4.856;2022-12-07T14:20:35;4.65;;;0.65;;
36547;SDS011;22551;52.206;4.856;2022-12-07T14:25:46;5.63;;;0.73;;
36547;SDS011;22551;52.206;4.856;2022-12-07T14:30:50;2.80;;;0.77;;
36547;SDS011;22551;52.206;4.856;2022-12-07T14:35:55;1.67;;;0.43;;
36547;SDS011;22551;52.206;4.856;2022-12-07T14:40:58;0.57;;;0.40;;
36547;SDS011;22551;52.206;4.856;2022-12-07T14:46:20;1.45;;;0.38;;
36547;SDS011;22551;52.206;4.856;2022-12-07T14:51:23;2.05;;;0.40;;
36547;SDS011;22551;52.206;4.856;2022-12-07T14:56:28;4.22;;;0.30;;
36547;SDS011;22551;52.206;4.856;2022-12-07T15:01:31;3.03;;;0.50;;
36547;SDS011;22551;52.206;4.856;2022-12-07T15:06:34;0.98;;;0.50;;
36547;SDS011;22551;52.206;4.856;2022-12-07T15:11:37;2.40;;;0.52;;
36547;SDS011;22551;52.206;4.856;2022-12-07T15:16:40;0.68;;;0.30;;
36547;SDS011;22551;52.206;4.856;2022-12-07T15:21:45;2.20;;;0.68;;
36547;SDS011;22551;52.206;4.856;2022-12-07T15:26:47;4.18;;;1.27;;
36547;SDS011;22551;52.206;4.856;2022-12-07T15:31:49;4.53;;;2.05;;
36547;SDS011;22551;52.206;4.856;2022-12-07T15:36:53;3.70;;;1.00;;
36547;SDS011;22551;52.206;4.856;2022-12-07T15:41:55;4.18;;;1.17;;
36547;SDS011;22551;52.206;4.856;2022-12-07T15:46:57;3.15;;;1.00;;
36547;SDS011;22551;52.206;4.856;2022-12-07T15:52:01;4.45;;;1.10;;
36547;SDS011;22551;52.206;4.856;2022-12-07T15:57:04;3.92;;;1.40;;
36547;SDS011;22551;52.206;4.856;2022-12-07T16:02:07;5.63;;;1.42;;
36547;SDS011;22551;52.206;4.856;2022-12-07T16:07:11;4.40;;;1.38;;
36547;SDS011;22551;52.206;4.856;2022-12-07T16:12:15;5.25;;;1.20;;
36547;SDS011;22551;52.206;4.856;2022-12-07T16:17:18;1.88;;;0.90;;
36547;SDS011;22551;52.206;4.856;2022-12-07T16:22:21;2.70;;;1.15;;
36547;SDS011;22551;52.206;4.856;2022-12-07T16:27:24;3.03;;;1.50;;
36547;SDS011;22551;52.206;4.856;2022-12-07T16:32:26;4.22;;;1.35;;
36547;SDS011;22551;52.206;4.856;2022-12-07T16:37:30;2.55;;;1.60;;
36547;SDS011;22551;52.206;4.856;2022-12-07T16:42:32;3.63;;;1.92;;
36547;SDS011;22551;52.206;4.856;2022-12-07T16:47:36;5.70;;;2.72;;
36547;SDS011;22551;52.206;4.856;2022-12-07T16:52:40;5.57;;;3.33;;
36547;SDS011;22551;52.206;4.856;2022-12-07T16:57:42;6.90;;;3.72;;
36547;SDS011;22551;52.206;4.856;2022-12-07T17:02:45;4.05;;;2.70;;
36547;SDS011;22551;52.206;4.856;2022-12-07T17:07:48;1.55;;;1.42;;
36547;SDS011;22551;52.206;4.856;2022-12-07T17:12:51;4.35;;;1.45;;
36547;SDS011;22551;52.206;4.856;2022-12-07T17:17:54;3.47;;;1.35;;
36547;SDS011;22551;52.206;4.856;2022-12-07T17:23:00;4.93;;;1.30;;
36547;SDS011;22551;52.206;4.856;2022-12-07T17:28:03;2.17;;;1.23;;
36547;SDS011;22551;52.206;4.856;2022-12-07T17:33:05;3.70;;;1.40;;
36547;SDS011;22551;52.206;4.856;2022-12-07T17:38:11;6.35;;;2.00;;
36547;SDS011;22551;52.206;4.856;2022-12-07T17:43:14;3.88;;;2.40;;
36547;SDS011;22551;52.206;4.856;2022-12-07T17:48:16;6.43;;;3.58;;
36547;SDS011;22551;52.206;4.856;2022-12-07T17:53:19;8.48;;;3.20;;
36547;SDS011;22551;52.206;4.856;2022-12-07T17:58:22;5.90;;;3.63;;
36547;SDS011;22551;52.206;4.856;2022-12-07T18:03:24;7.88;;;2.10;;
36547;SDS011;22551;52.206;4.856;2022-12-07T18:08:27;5.30;;;2.30;;
36547;SDS011;22551;52.206;4.856;2022-12-07T18:13:30;6.55;;;2.30;;
36547;SDS011;22551;52.206;4.856;2022-12-07T18:18:39;6.07;;;2.05;;
36547;SDS011;22551;52.206;4.856;2022-12-07T18:23:43;7.28;;;2.50;;
36547;SDS011;22551;52.206;4.856;2022-12-07T18:28:49;4.95;;;1.83;;
36547;SDS011;22551;52.206;4.856;2022-12-07T18:33:51;4.10;;;1.67;;
36547;SDS011;22551;52.206;4.856;2022-12-07T18:38:56;3.85;;;1.95;;
36547;SDS011;22551;52.206;4.856;2022-12-07T18:43:58;7.35;;;2.50;;
36547;SDS011;22551;52.206;4.856;2022-12-07T18:49:01;8.80;;;2.33;;
36547;SDS011;22551;52.206;4.856;2022-12-07T18:54:06;9.57;;;6.22;;
36547;SDS011;22551;52.206;4.856;2022-12-07T18:59:10;14.15;;;6.45;;
36547;SDS011;22551;52.206;4.856;2022-12-07T19:04:31;7.68;;;3.78;;
36547;SDS011;22551;52.206;4.856;2022-12-07T19:09:35;7.53;;;2.28;;
36547;SDS011;22551;52.206;4.856;2022-12-07T19:14:37;5.00;;;2.50;;
36547;SDS011;22551;52.206;4.856;2022-12-07T19:19:41;13.45;;;3.35;;
36547;SDS011;22551;52.206;4.856;2022-12-07T19:24:47;7.50;;;2.28;;
36547;SDS011;22551;52.206;4.856;2022-12-07T19:29:52;5.82;;;3.00;;
36547;SDS011;22551;52.206;4.856;2022-12-07T19:34:54;5.80;;;1.38;;
36547;SDS011;22551;52.206;4.856;2022-12-07T19:39:57;6.28;;;1.65;;
36547;SDS011;22551;52.206;4.856;2022-12-07T19:45:00;7.47;;;1.08;;
36547;SDS011;22551;52.206;4.856;2022-12-07T19:50:03;5.35;;;1.27;;
36547;SDS011;22551;52.206;4.856;2022-12-07T19:55:08;3.97;;;1.35;;
36547;SDS011;22551;52.206;4.856;2022-12-07T20:00:11;5.25;;;1.35;;
36547;SDS011;22551;52.206;4.856;2022-12-07T20:05:14;5.88;;;1.23;;
36547;SDS011;22551;52.206;4.856;2022-12-07T20:10:18;2.42;;;1.15;;
36547;SDS011;22551;52.206;4.856;2022-12-07T20:15:20;6.10;;;1.55;;
36547;SDS011;22551;52.206;4.856;2022-12-07T20:20:23;3.40;;;1.40;;
36547;SDS011;22551;52.206;4.856;2022-12-07T20:25:26;2.30;;;1.40;;
36547;SDS011;22551;52.206;4.856;2022-12-07T20:30:28;6.32;;;2.30;;
36547;SDS011;22551;52.206;4.856;2022-12-07T20:35:33;4.97;;;2.07;;
36547;SDS011;22551;52.206;4.856;2022-12-07T20:40:37;5.13;;;2.22;;
36547;SDS011;22551;52.206;4.856;2022-12-07T20:45:42;3.03;;;1.63;;
36547;SDS011;22551;52.206;4.856;2022-12-07T20:50:45;6.72;;;2.83;;
36547;SDS011;22551;52.206;4.856;2022-12-07T20:55:49;4.43;;;2.60;;
36547;SDS011;22551;52.206;4.856;2022-12-07T21:00:51;4.85;;;2.08;;
36547;SDS011;22551;52.206;4.856;2022-12-07T21:05:53;8.77;;;2.70;;
36547;SDS011;22551;52.206;4.856;2022-12-07T21:10:57;6.93;;;3.58;;
36547;SDS011;22551;52.206;4.856;2022-12-07T21:15:59;8.30;;;3.50;;
36547;SDS011;22551;52.206;4.856;2022-12-07T21:21:07;6.15;;;2.90;;
36547;SDS011;22551;52.206;4.856;2022-12-07T21:26:12;7.47;;;2.38;;
36547;SDS011;22551;52.206;4.856;2022-12-07T21:31:17;4.43;;;2.20;;
36547;SDS011;22551;52.206;4.856;2022-12-07T21:36:21;5.80;;;1.80;;
36547;SDS011;22551;52.206;4.856;2022-12-07T21:46:30;4.18;;;1.60;;
36547;SDS011;22551;52.206;4.856;2022-12-07T21:51:33;8.85;;;2.15;;
36547;SDS011;22551;52.206;4.856;2022-12-07T21:56:38;11.45;;;3.13;;
36547;SDS011;22551;52.206;4.856;2022-12-07T22:01:44;4.68;;;2.45;;
36547;SDS011;22551;52.206;4.856;2022-12-07T22:06:47;7.43;;;2.58;;
36547;SDS011;22551;52.206;4.856;2022-12-07T22:11:51;4.47;;;1.90;;
36547;SDS011;22551;52.206;4.856;2022-12-07T22:16:54;5.88;;;2.25;;
36547;SDS011;22551;52.206;4.856;2022-12-07T22:21:59;3.17;;;1.23;;
36547;SDS011;22551;52.206;4.856;2022-12-07T22:27:02;4.13;;;1.50;;
36547;SDS011;22551;52.206;4.856;2022-12-07T22:32:05;6.13;;;1.15;;
36547;SDS011;22551;52.206;4.856;2022-12-07T22:37:07;6.65;;;0.95;;
36547;SDS011;22551;52.206;4.856;2022-12-07T22:42:11;1.58;;;0.80;;
36547;SDS011;22551;52.206;4.856;2022-12-07T22:47:13;3.58;;;0.80;;
36547;SDS011;22551;52.206;4.856;2022-12-07T22:52:16;2.55;;;0.82;;
36547;SDS011;22551;52.206;4.856;2022-12-07T22:57:20;2.10;;;0.98;;
36547;SDS011;22551;52.206;4.856;2022-12-07T23:02:22;2.88;;;0.90;;
36547;SDS011;22551;52.206;4.856;2022-12-07T23:07:24;2.78;;;1.27;;
36547;SDS011;22551;52.206;4.856;2022-12-07T23:12:28;5.32;;;1.08;;
36547;SDS011;22551;52.206;4.856;2022-12-07T23:17:47;4.68;;;1.20;;
36547;SDS011;22551;52.206;4.856;2022-12-07T23:22:50;6.75;;;1.40;;
36547;SDS011;22551;52.206;4.856;2022-12-07T23:27:53;2.45;;;1.10;;
36547;SDS011;22551;52.206;4.856;2022-12-07T23:32:56;5.88;;;1.30;;
36547;SDS011;22551;52.206;4.856;2022-12-07T23:37:58;3.10;;;1.30;;
36547;SDS011;22551;52.206;4.856;2022-12-07T23:43:02;6.03;;;1.35;;
36547;SDS011;22551;52.206;4.856;2022-12-07T23:48:04;2.45;;;1.13;;
36547;SDS011;22551;52.206;4.856;2022-12-07T23:53:06;2.47;;;1.00;;
36547;SDS011;22551;52.206;4.856;2022-12-07T23:58:10;3.38;;;1.52;;
